Track Ильченко Даниил

Time Latitude Longitude Accuracy (66% radius in meters) Altitude (meters) Speed (km/hour) Bearing (degrees) Battery (%) GPS flag
11:44:31 57.203959 60.118175 0 0 0 0 1 delete
11:44:30 57.203960 60.118180 0 0 0 0 1 delete
11:44:27 57.203990 60.118125 0 0 0 0 1 delete
11:44:20 57.204136 60.117879 0 0 0 0 1 delete
11:44:14 57.204276 60.117650 0 0 0 0 1 delete
11:44:08 57.204449 60.117438 0 0 0 0 1 delete
11:44:06 57.204525 60.117395 0 0 0 0 1 delete
11:44:01 57.204719 60.117378 0 0 0 0 1 delete
11:43:54 57.204926 60.117383 0 0 0 0 1 delete
11:43:51 57.204912 60.117297 0 0 0 0 1 delete
11:43:48 57.204894 60.117189 0 0 0 0 1 delete
11:43:39 57.204781 60.116900 0 0 0 0 1 delete
11:43:38 57.204772 60.116863 0 0 0 0 1 delete
11:43:29 57.204647 60.116569 0 0 0 0 1 delete
11:43:19 57.204576 60.116249 0 0 0 0 1 delete
11:43:15 57.204493 60.116157 0 0 0 0 1 delete
11:43:07 57.204292 60.116091 0 0 0 0 1 delete
11:42:52 57.204188 60.115840 0 0 0 0 1 delete
11:42:50 57.204142 60.115783 0 0 0 0 1 delete
11:42:46 57.203971 60.115683 0 0 0 0 1 delete
11:42:40 57.203769 60.115541 0 0 0 0 1 delete
11:42:33 57.203590 60.115364 0 0 0 0 1 delete
11:42:28 57.203392 60.115240 0 0 0 0 1 delete
11:42:26 57.203312 60.115197 0 0 0 0 1 delete
11:42:20 57.203128 60.115087 0 0 0 0 1 delete
11:42:13 57.203035 60.114804 0 0 0 0 1 delete
11:42:07 57.203121 60.114616 0 0 0 0 1 delete
11:42:06 57.203125 60.114570 0 0 0 0 1 delete
11:41:58 57.203125 60.114316 0 0 0 0 1 delete
11:41:57 57.203137 60.114286 0 0 0 0 1 delete
11:41:51 57.203157 60.114061 0 0 0 0 1 delete
11:41:47 57.203064 60.114082 0 0 0 0 1 delete
11:41:46 57.203060 60.114086 0 0 0 0 1 delete
11:41:34 57.203241 60.114136 0 0 0 0 1 delete
11:41:32 57.203276 60.114127 0 0 0 0 1 delete
11:41:23 57.203456 60.114238 0 0 0 0 1 delete
11:41:16 57.203601 60.114475 0 0 0 0 1 delete
11:41:08 57.203726 60.114735 0 0 0 0 1 delete
11:41:03 57.203792 60.114702 0 0 0 0 1 delete
11:40:56 57.203903 60.114651 0 0 0 0 1 delete
11:40:55 57.203922 60.114647 0 0 0 0 1 delete
11:40:43 57.203984 60.114367 0 0 0 0 1 delete
11:40:31 57.204141 60.114262 0 0 0 0 1 delete
11:40:27 57.204207 60.114215 0 0 0 0 1 delete
11:40:21 57.204287 60.114090 0 0 0 0 1 delete
11:40:17 57.204360 60.114163 0 0 0 0 1 delete
11:40:10 57.204542 60.114315 0 0 0 0 1 delete
11:40:03 57.204733 60.114332 0 0 0 0 1 delete
11:39:57 57.204909 60.114448 0 0 0 0 1 delete
11:39:49 57.205104 60.114460 0 0 0 0 1 delete